Aviation Digital Data Service (ADDS)

Output produced by METARs form (0531 UTC 18 April 2014)
found at http://aviationweather.gov/adds/metars/
 
KSBY 180302Z 1803/1824 07010G16KT P6SM BKN020 
     FM181500 09007KT P6SM BKN040